CheckWX is a tool to help pilots better visualize weather data.  It is not intended as a substitute for an official pre-flight weather briefing.

01:53:10 UTC

KSTJ TAF
Rosecrans Memorial Airport
St Joseph, Missouri, USA
KSTJ 182320Z 1900/1924 VRB04KT P6SM SKC FM191000 VRB03KT P6SM VCSH OVC080 FM191300 VRB04KT P6SM -RA OVC050 FM191800 12007KT 6SM BR VCSH OVC027 FM192100 10007KT 4SM -RA BR OVC016

Mar-19@
00:00 UTC

Mar-19 @ 00:00 UTC

Mar-19@
10:00 UTC

Mar-19 @ 10:00 UTC

KSTJ 182320Z 1900/1924 VRB04KT P6SM SKC
Wind
  • Variable at 4 KTS
Cloud Levels
  • Clear skies

Mar-19@
10:00 UTC

Mar-19 @ 10:00 UTC

Mar-19@
13:00 UTC

Mar-19 @ 13:00 UTC

FM191000 VRB03KT P6SM VCSH OVC080

From

From Standard forecast or significant change

Wind
  • Variable at 3 KTS
Cloud Levels
  • Overcast at 8,000' AGL

Mar-19@
13:00 UTC

Mar-19 @ 13:00 UTC

Mar-19@
18:00 UTC

Mar-19 @ 18:00 UTC

FM191300 VRB04KT P6SM -RA OVC050

From

From Standard forecast or significant change

Wind
  • Variable at 4 KTS
Conditions
Light Rain
Cloud Levels
  • Overcast at 5,000' AGL

Mar-19@
18:00 UTC

Mar-19 @ 18:00 UTC

Mar-19@
21:00 UTC

Mar-19 @ 21:00 UTC

FM191800 12007KT 6SM BR VCSH OVC027

From

From Standard forecast or significant change

Wind
  • 120° at 7 KTS
Conditions
Mist
Cloud Levels
  • Overcast at 2,700' AGL

Mar-19@
21:00 UTC

Mar-19 @ 21:00 UTC

Mar-20@
00:00 UTC

Mar-20 @ 00:00 UTC

FM192100 10007KT 4SM -RA BR OVC016

From

From Standard forecast or significant change

Wind
  • 100° at 7 KTS
Conditions
Light Rain, Mist
Cloud Levels
  • Overcast at 1,600' AGL